罗盘
风向 的 Lille-Lesquin Airport 1/19
风: 4 kt, 2 beaufort

4 kt

1 kt
改变
0 1.000 2.000 3.000 4.000 5.000
FEW 3.600 ft
METAR LFQQ 291130Z AUTO VRB04KT 9999 FEW036 15/06 Q1003 TEMPO 4000 SHRA BKN025CB

METAR Lille-Lesquin Airport - LFQQ/LIL

Lille-Lesquin Airport是Lille/Lesquin,法国中的中型机场。 该机场有2条跑道: 1/19 和 8/26. 该领域的国际民航组织标志是LFQQ 它的国际航空运输协会代码是LIL.

这份报告是针对2022年9月29日 13:30, 当地时间在Lille-Lesquin Airport进行的。

机场观察

可变方向的风很小或没有风。

可见度为10 km 或者更多。

有几云在3.600 ft的高度。 没有观察到天花板。

温度和风寒是15 °C。 露点为6 °C,相对湿度为55%。 海平面上的气压为1003 hPa (QNH)。

发展趋势

  • 暂时的

    可变方向的风很小或没有。 可见性变为4 km。 重大天气:阵雨 雨。 碎云 积雨云在2.500 ft的高度.

白天

今天,太阳从07:44升起,在19:31降落。 这适用于Lille-Lesquin Airport,世界夏令时可能有所不同。 当地时间与世界标准时间之间的时差为+2 小时。 夏令时目前正在进行中。

公司介绍

在这个机场,你可以找到飞行俱乐部。 本场上唯一已知的公司是Club Aérien Lille Métropole。

体会

到Vliegles.nl去找飞行课程,跳伞和其他飞行体验。 浏览页面,了解Lille-Lesquin Airport附近所有可用的活动。 你也可以使用搜索功能来寻找你所在地附近的特定飞行课程、跳伞或其他飞行体验。

跑道

Id 标题 侧风 逆风 侧风 %
1/19 015°-195° 1 kt 4 kt 26 %
8/26 078°-258° 4 kt 98 %

逆风成分最大的方向会被突出显示,并用于横风计算。 这并不一定意味着这个方向在使用。

乌云

3.600 ft FEW 几云
2.500 ft BKN 暂时的 碎云 积雨云

温度 & 天气

温度 15 °C
露点 6 °C
相对湿度 55%
Kp-index 2 (0-9)

白天

日出
07:44
中午
13:37
日落
19:31 (5h 48m)

小工具

你想在你的网站上有一个关于Lille-Lesquin Airport的当前航空天气(METAR)的小部件吗?

</> 显示HTML代码

我们和第三方通过cookies跟踪您在我们网站上的上网行为。如果您继续,我们认为您同意我们的cookie政策。 了解更多